FW9998 Weather Reports


Display with metric or nautical units.
time (UTC)temp
F
wind
direction
speed
MPH
gust
MPH
rain 1hr
in
rain 24hr
in
rain mn
in
humidity
%
barometer
mb
20220926185353 74 313 3.0 4.0 0.00 0.08 0.08 55 1005.0
20220926184853 75 281 4.0 6.0 0.00 0.08 0.08 54 1005.0
20220926184352 74 176 4.0 6.0 0.00 0.08 0.08 54 1005.0
20220926183852 74 202 8.0 10.0 0.00 0.08 0.08 55 1005.0
20220926183351 73 235 2.0 3.0 0.00 0.08 0.08 56 1005.4
20220926182851 73 231 4.0 6.0 0.00 0.08 0.08 57 1005.0
20220926182351 74 200 6.0 9.0 0.00 0.08 0.08 55 1005.0
20220926181849 75 188 4.0 7.0 0.00 0.08 0.08 54 1005.0
20220926181348 74 208 2.0 3.0 0.00 0.08 0.08 56 1004.7
20220926180848 73 167 6.0 8.0 0.00 0.08 0.08 57 1004.7
20220926180347 72 267 4.0 6.0 0.00 0.08 0.08 58 1005.0
20220926175845 73 165 3.0 3.0 0.00 0.08 0.08 56 1005.0
20220926175345 73 151 4.0 4.0 0.00 0.08 0.08 56 1005.0
20220926174844 73 224 7.0 8.0 0.00 0.08 0.08 56 1005.0
20220926174343 72 228 5.0 6.0 0.00 0.08 0.08 59 1005.0
20220926173842 72 272 4.0 4.0 0.00 0.08 0.08 59 1005.0
20220926173341 73 189 6.0 10.0 0.00 0.08 0.08 57 1005.0
20220926172839 73 202 5.0 7.0 0.00 0.08 0.08 57 1005.0
20220926172339 73 286 6.0 7.0 0.00 0.08 0.08 57 1005.0
20220926171838 73 222 6.0 10.0 0.00 0.08 0.08 58 1005.4
20220926171338 72 176 4.0 6.0 0.00 0.08 0.08 60 1005.0
20220926170837 72 280 3.0 4.0 0.00 0.08 0.08 61 1005.4
20220926170336 72 209 3.0 3.0 0.00 0.08 0.08 62 1005.7
20220926165834 72 170 4.0 8.0 0.00 0.08 0.08 63 1005.4
20220926165333 72 197 5.0 8.0 0.00 0.08 0.08 62 1005.0
20220926164833 71 185 4.0 6.0 0.00 0.08 0.08 64 1005.4
20220926164333 71 160 7.0 10.0 0.00 0.08 0.08 62 1005.4
20220926163831 71 166 6.0 9.0 0.00 0.08 0.08 66 1005.7
20220926163329 70 335 9.0 16.0 0.00 0.08 0.08 66 1005.7
20220926162829 70 118 8.0 10.0 0.00 0.08 0.08 67 1005.4
20220926162328 71 203 4.0 7.0 0.00 0.08 0.08 67 1005.7
20220926161827 70 139 6.0 9.0 0.00 0.08 0.08 68 1005.4
20220926161327 71 155 4.0 4.0 0.00 0.08 0.08 68 1005.4
20220926160826 69 261 4.0 6.0 0.00 0.08 0.08 70 1005.4
20220926160324 70 135 3.0 4.0 0.00 0.08 0.08 71 1005.4
20220926155824 69 218 2.0 4.0 0.00 0.08 0.08 73 1005.4
20220926155324 68 44 1.0 2.0 0.00 0.08 0.08 74 1005.0
20220926154823 67 223 2.0 2.0 0.00 0.08 0.08 76 1005.4
20220926154322 67 200 4.0 7.0 0.00 0.08 0.08 76 1005.7
20220926153822 68 251 3.0 4.0 0.00 0.08 0.08 76 1005.4
20220926153320 67 236 6.0 7.0 0.00 0.08 0.08 76 1005.4
20220926152818 66 197 3.0 3.0 0.00 0.08 0.08 77 1005.4
20220926152316 66 243 2.0 2.0 0.00 0.08 0.08 79 1005.4
20220926151814 67 198 2.0 3.0 0.00 0.08 0.08 79 1005.4
20220926151315 66 203 4.0 6.0 0.00 0.08 0.08 80 1005.7
20220926150814 66 258 2.0 2.0 0.00 0.08 0.08 80 1005.7
20220926150314 66 233 2.0 3.0 0.00 0.08 0.08 80 1005.4
20220926145813 65 263 2.0 3.0 0.00 0.08 0.08 81 1005.4
20220926145311 66 175 6.0 7.0 0.00 0.08 0.08 79 1005.4
20220926144810 66 229 2.0 2.0 0.00 0.08 0.08 80 1005.4
20220926144309 66 139 5.0 6.0 0.00 0.08 0.08 79 1005.4
20220926143809 66 218 2.0 2.0 0.00 0.08 0.08 80 1005.7
20220926143308 66 283 2.0 3.0 0.00 0.08 0.08 80 1005.7
20220926142807 67 171 5.0 6.0 0.00 0.08 0.08 78 1005.7
20220926142306 66 69 2.0 6.0 0.00 0.08 0.08 79 1005.7
20220926141805 66 165 4.0 4.0 0.00 0.08 0.08 79 1005.4
20220926141304 66 178 3.0 4.0 0.00 0.08 0.08 80 1005.0
20220926140803 67 211 3.0 4.0 0.00 0.08 0.08 80 1005.0
20220926140302 67 274 3.0 3.0 0.00 0.08 0.08 81 1005.0
20220926135802 66 219 4.0 6.0 0.00 0.08 0.08 81 1005.4
20220926135301 66 166 2.0 4.0 0.00 0.08 0.08 81 1005.4
20220926134800 66 198 4.0 6.0 0.00 0.08 0.08 82 1005.0
20220926134300 66 231 4.0 6.0 0.00 0.08 0.08 82 1005.0
20220926133800 65 189 3.0 4.0 0.00 0.08 0.08 82 1005.0
20220926133258 65 323 3.0 3.0 0.00 0.08 0.08 84 1005.0
20220926132756 65 213 6.0 8.0 0.00 0.08 0.08 84 1005.0
20220926132256 65 117 0.0 0.0 0.00 0.08 0.08 86 1005.0
20220926131756 64 211 2.0 3.0 0.00 0.08 0.08 86 1005.0
20220926131254 64 107 1.0 2.0 0.00 0.08 0.08 87 1004.7
20220926130753 63 251 2.0 2.0 0.00 0.08 0.08 89 1005.0
20220926130253 63 140 1.0 2.0 0.00 0.08 0.08 90 1004.7
20220926125751 63 192 6.0 7.0 0.00 0.08 0.08 90 1004.7
20220926125249 62 157 1.0 2.0 0.00 0.08 0.08 91 1004.7
20220926124749 62 166 1.0 1.0 0.00 0.08 0.08 91 1004.7
20220926124249 62 148 2.0 3.0 0.00 0.08 0.08 92 1004.4
20220926123748 62 169 1.0 1.0 0.00 0.08 0.08 92 1004.7
20220926123248 61 112 1.0 1.0 0.00 0.08 0.08 93 1004.7
20220926122746 62 106 2.0 2.0 0.00 0.08 0.08 93 1004.4
20220926122246 61 287 1.0 1.0 0.00 0.08 0.08 93 1004.4
20220926121744 61 178 2.0 4.0 0.00 0.08 0.08 93 1004.7
20220926121241 61 92 2.0 3.0 0.00 0.08 0.08 94 1004.7
20220926120739 61 264 1.0 1.0 0.00 0.08 0.08 94 1004.4
20220926120237 61 190 0.0 1.0 0.00 0.08 0.08 95 1004.4
20220926115736 60 203 2.0 3.0 0.00 0.08 0.08 95 1004.4
20220926115236 60 20 2.0 2.0 0.00 0.08 0.08 96 1004.0
20220926114735 60 179 2.0 4.0 0.00 0.08 0.08 96 1004.4
20220926114234 59 301 3.0 3.0 0.00 0.08 0.08 97 1004.0
20220926113733 59 179 1.0 1.0 0.00 0.08 0.08 97 1004.0
20220926113233 59 255 5.0 6.0 0.00 0.08 0.08 97 1003.7
20220926112731 59 109 0.0 1.0 0.00 0.08 0.08 97 1003.7
20220926112229 59 152 2.0 2.0 0.00 0.08 0.08 97 1004.0
20220926111729 59 181 2.0 3.0 0.00 0.08 0.08 97 1004.0
20220926111229 59 138 1.0 2.0 0.00 0.08 0.08 97 1003.7
20220926110727 58 143 1.0 1.0 0.00 0.08 0.08 97 1003.7
20220926110227 58 109 1.0 1.0 0.00 0.08 0.08 97 1003.7
20220926105727 58 123 0.0 1.0 0.00 0.08 0.08 97 1003.4
20220926105225 58 129 1.0 1.0 0.00 0.08 0.08 97 1003.4
20220926104723 58 149 1.0 2.0 0.00 0.08 0.08 97 1003.4
20220926104223 58 178 2.0 3.0 0.00 0.08 0.08 98 1003.0
20220926103722 59 154 2.0 2.0 0.00 0.08 0.08 98 1003.4
20220926103220 59 131 0.0 0.0 0.00 0.08 0.08 98 1003.0
20220926102719 59 114 0.0 0.0 0.00 0.08 0.08 98 1002.7
20220926102218 59 165 1.0 1.0 0.00 0.08 0.08 98 1002.7
20220926101717 59 154 1.0 1.0 0.00 0.08 0.08 98 1002.7
20220926101216 59 148 2.0 2.0 0.00 0.08 0.08 98 1002.3
20220926100715 59 148 2.0 2.0 0.00 0.08 0.08 98 1002.3
20220926100214 59 131 2.0 3.0 0.00 0.08 0.08 98 1002.7
20220926095712 59 163 1.0 2.0 0.00 0.08 0.08 98 1002.3
20220926095211 59 120 0.0 0.0 0.00 0.08 0.08 98 1002.3
20220926094711 59 180 2.0 2.0 0.00 0.08 0.08 98 1002.3
20220926094209 59 177 1.0 1.0 0.00 0.08 0.08 98 1002.3
20220926093709 59 126 0.0 1.0 0.00 0.08 0.08 98 1002.3
20220926093209 59 104 0.0 0.0 0.00 0.08 0.08 98 1002.0
20220926092708 59 157 1.0 1.0 0.00 0.08 0.08 98 1002.0
20220926092207 59 115 0.0 0.0 0.00 0.08 0.08 98 1002.0
20220926091706 60 171 1.0 1.0 0.00 0.08 0.08 98 1001.7
20220926091206 60 316 1.0 1.0 0.00 0.08 0.08 97 1002.0
20220926090705 60 195 2.0 2.0 0.00 0.08 0.08 97 1002.0
20220926090204 60 141 2.0 3.0 0.00 0.08 0.08 97 1002.0
20220926085703 60 127 1.0 1.0 0.00 0.08 0.08 97 1002.0
20220926085201 60 143 1.0 1.0 0.00 0.08 0.08 97 1001.7
20220926084659 59 128 1.0 1.0 0.00 0.08 0.08 97 1001.7
20220926084159 59 285 1.0 2.0 0.00 0.08 0.08 97 1002.0
20220926083657 59 112 0.0 0.0 0.00 0.08 0.08 97 1001.7
20220926083155 59 173 1.0 2.0 0.00 0.08 0.08 97 1001.7
20220926082653 58 137 1.0 1.0 0.00 0.08 0.08 97 1002.3
20220926082153 58 119 0.0 0.0 0.00 0.08 0.08 97 1001.7
20220926081651 58 105 0.0 0.0 0.00 0.08 0.08 97 1001.7
20220926081150 58 113 0.0 0.0 0.00 0.08 0.08 97 1001.3
20220926080649 58 102 0.0 0.0 0.00 0.08 0.08 97 1001.7
20220926080148 58 121 0.0 0.0 0.00 0.08 0.08 97 1001.7
20220926075646 58 110 0.0 0.0 0.00 0.08 0.08 97 1001.7
20220926075144 58 107 0.0 0.0 0.00 0.08 0.08 97 1001.7
20220926074643 59 112 0.0 0.0 0.00 0.08 0.08 97 1001.7
20220926074142 59 122 0.0 0.0 0.00 0.08 0.08 96 1002.0
20220926073640 59 110 0.0 0.0 0.00 0.08 0.08 96 1001.3
20220926073139 59 98 0.0 0.0 0.00 0.08 0.08 96 1001.3
20220926072637 59 91 0.0 0.0 0.00 0.08 0.08 96 1001.7
20220926072136 59 94 0.0 0.0 0.00 0.08 0.08 96 1001.7
20220926071634 59 52 1.0 1.0 0.00 0.08 0.08 96 1001.7
20220926071133 60 111 0.0 0.0 0.00 0.08 0.08 96 1002.0
20220926070631 60 112 0.0 0.0 0.00 0.08 0.08 95 1001.7
20220926070131 60 107 0.0 0.0 0.00 0.08 0.08 95 1001.7
20220926065629 60 122 0.0 1.0 0.00 0.08 0.08 95 1001.7
20220926065127 60 114 0.0 0.0 0.00 0.08 0.08 95 1001.7
20220926064625 60 101 0.0 0.0 0.00 0.08 0.08 94 1001.7
20220926064125 61 97 0.0 0.0 0.00 0.08 0.08 94 1001.7
20220926063624 61 106 0.0 0.0 0.00 0.08 0.08 94 1001.7
20220926063123 61 108 0.0 0.0 0.00 0.08 0.08 94 1002.0
20220926062623 61 116 0.0 0.0 0.00 0.08 0.08 94 1002.3
20220926062122 61 127 1.0 1.0 0.05 0.08 0.08 93 1002.0
20220926061621 61 117 1.0 1.0 0.05 0.08 0.08 92 1002.3
20220926061119 61 207 1.0 2.0 0.00 0.07 0.07 92 1002.7
20220926060619 62 286 2.0 3.0 0.07 0.07 0.07 91 1003.0
20220926060118 62 133 1.0 1.0 0.12 0.07 0.07 90 1003.0
20220926055617 62 148 4.0 8.0 0.17 0.06 0.06 90 1003.4
20220926055117 62 204 3.0 3.0 0.19 0.05 0.05 90 1003.4
20220926054617 63 245 3.0 3.0 0.12 0.03 0.03 90 1003.4
20220926054115 63 157 4.0 7.0 0.05 0.02 0.02 90 1003.4
20220926053613 64 196 7.0 8.0 0.00 0.01 0.01 89 1003.4
20220926053114 64 195 2.0 2.0 0.07 0.01 0.01 89 1003.4
20220926052613 64 195 2.0 3.0 0.07 0.01 0.01 88 1003.4
20220926052111 64 150 6.0 8.0 0.00 0.00 0.00 86 1003.0
20220926051608 64 314 4.0 6.0 0.00 0.00 0.00 86 1003.0
20220926051107 65 205 3.0 4.0 0.00 0.00 0.00 86 1003.0
20220926050606 64 215 4.0 4.0 0.00 0.00 0.00 86 1003.4
20220926050104 64 221 4.0 6.0 0.00 0.00 0.00 86 1003.0
20220926045602 64 247 4.0 7.0 0.00 0.00 0.00 86 1003.4
20220926045100 64 199 2.0 2.0 0.00 0.00 0.00 86 1003.0
20220926044558 64 191 3.0 3.0 0.00 0.00 0.00 86 1003.0
20220926044058 64 141 1.0 2.0 0.00 0.00 0.00 86 1003.0
20220926043556 64 191 2.0 2.0 0.00 0.00 0.00 86 1003.0
20220926043056 64 166 3.0 4.0 0.00 0.00 0.00 86 1003.0
20220926042555 64 155 3.0 4.0 0.00 0.00 0.00 87 1002.7
20220926042054 64 204 2.0 3.0 0.00 0.00 0.00 87 1002.3
20220926041553 64 178 1.0 1.0 0.00 0.00 0.00 87 1002.7
20220926041053 64 109 2.0 2.0 0.00 0.00 0.00 87 1002.3
20220926040551 65 190 3.0 3.0 0.00 0.00 0.00 87 1002.7
20220926040051 65 178 2.0 4.0 0.00 0.00 0.00 87 1002.7
20220926035550 65 174 4.0 4.0 0.00 0.01 0.01 87 1002.7
20220926035050 65 194 3.0 4.0 0.00 0.01 0.01 88 1002.7
20220926034550 65 133 2.0 3.0 0.00 0.01 0.01 88 1003.0
20220926034049 65 193 3.0 4.0 0.00 0.01 0.01 88 1002.7
20220926033547 65 174 5.0 7.0 0.00 0.01 0.01 89 1002.7
20220926033046 65 180 2.0 4.0 0.00 0.01 0.01 89 1003.0
20220926032546 65 169 3.0 4.0 0.00 0.01 0.01 90 1002.7
20220926032045 65 221 4.0 4.0 0.00 0.01 0.01 90 1002.7
20220926031543 65 197 3.0 4.0 0.00 0.01 0.01 90 1003.0
20220926031043 65 203 2.0 2.0 0.00 0.01 0.01 90 1003.0
20220926030542 65 248 4.0 4.0 0.00 0.01 0.01 89 1002.7
20220926030042 65 224 3.0 3.0 0.00 0.01 0.01 89 1003.0
20220926025542 65 180 3.0 3.0 0.00 0.01 0.01 90 1003.0
20220926025041 65 256 4.0 6.0 0.00 0.01 0.01 89 1003.0
20220926024540 65 208 2.0 3.0 0.00 0.01 0.01 90 1002.7
20220926024039 65 153 1.0 1.0 0.00 0.01 0.01 90 1003.0
20220926023537 65 303 3.0 4.0 0.00 0.01 0.01 90 1003.0
20220926023036 65 168 3.0 3.0 0.00 0.01 0.01 90 1003.0
20220926022535 65 215 4.0 4.0 0.00 0.01 0.01 90 1003.4
20220926022035 65 166 4.0 6.0 0.00 0.01 0.01 90 1003.0
20220926021533 65 190 3.0 4.0 0.00 0.01 0.01 90 1003.4
20220926021032 65 137 2.0 3.0 0.00 0.01 0.01 91 1003.4
20220926020531 65 149 1.0 1.0 0.00 0.01 0.01 91 1003.4
20220926020030 65 167 2.0 2.0 0.00 0.01 0.01 91 1003.4
20220926015529 66 146 1.0 1.0 0.00 0.01 0.01 91 1003.4
20220926015029 65 160 3.0 4.0 0.00 0.01 0.01 91 1003.0
20220926014528 65 144 2.0 2.0 0.00 0.01 0.01 91 1003.4
20220926014026 65 150 2.0 2.0 0.00 0.01 0.01 91 1003.4
20220926013526 65 208 4.0 6.0 0.00 0.01 0.01 91 1003.4
20220926013025 65 211 2.0 2.0 0.00 0.01 0.01 91 1003.4
20220926012525 66 129 2.0 3.0 0.00 0.01 0.01 90 1003.4
20220926012024 66 157 1.0 1.0 0.00 0.01 0.01 90 1003.0
20220926011524 66 146 2.0 2.0 0.00 0.01 0.01 90 1003.4
20220926011022 66 211 2.0 3.0 0.00 0.01 0.01 89 1003.4
20220926010521 66 176 2.0 3.0 0.00 0.01 0.01 89 1003.4
20220926010021 66 158 3.0 3.0 0.00 0.01 0.01 89 1003.4
20220926005521 66 132 1.0 2.0 0.00 0.01 0.01 89 1003.4
20220926005019 66 207 2.0 3.0 0.00 0.01 0.01 88 1003.4
20220926004518 66 139 1.0 1.0 0.00 0.01 0.01 88 1003.4
20220926004016 66 159 3.0 3.0 0.00 0.01 0.01 88 1003.7
20220926003516 66 171 3.0 4.0 0.00 0.01 0.01 88 1003.7
20220926003015 66 178 3.0 4.0 0.00 0.01 0.01 87 1003.7
20220926002514 66 144 2.0 3.0 0.00 0.01 0.01 87 1003.7
20220926002014 66 147 2.0 3.0 0.00 0.01 0.01 87 1003.7
20220926001512 66 187 3.0 3.0 0.00 0.01 0.01 87 1003.4
20220926001013 66 160 2.0 3.0 0.00 0.01 0.01 87 1003.7
20220926000512 66 147 1.0 1.0 0.00 0.01 0.01 87 1003.7
20220926000012 66 173 2.0 3.0 0.00 0.01 0.01 87 1003.7
20220925235512 66 217 3.0 4.0 0.00 0.01 0.01 87 1003.7
20220925235011 66 207 2.0 3.0 0.00 0.01 0.01 87 1003.7
20220925234511 66 180 2.0 3.0 0.00 0.01 0.01 87 1003.7
20220925234010 66 189 1.0 2.0 0.00 0.01 0.01 87 1004.0
20220925233509 66 148 2.0 2.0 0.00 0.01 0.01 87 1004.0
20220925233007 66 181 2.0 2.0 0.00 0.01 0.01 87 1004.0
20220925232506 66 158 1.0 2.0 0.00 0.01 0.01 87 1003.7
20220925232005 66 132 3.0 3.0 0.00 0.01 0.01 88 1004.0
20220925231505 66 123 1.0 2.0 0.00 0.01 0.01 88 1004.0
20220925231004 66 142 1.0 1.0 0.00 0.01 0.01 88 1004.4
20220925230503 66 117 0.0 1.0 0.00 0.01 0.01 87 1004.4
20220925230002 66 140 0.0 0.0 0.00 0.01 0.01 87 1004.4
20220925225502 66 173 1.0 2.0 0.00 0.01 0.01 87 1004.0
20220925225002 66 159 1.0 2.0 0.00 0.01 0.01 87 1004.4
20220925224502 66 175 3.0 3.0 0.00 0.01 0.01 87 1004.4
20220925224001 66 113 1.0 1.0 0.00 0.01 0.01 87 1004.4
20220925223500 66 135 2.0 2.0 0.00 0.01 0.01 86 1004.4
20220925222959 66 187 1.0 2.0 0.00 0.01 0.01 86 1004.4
20220925222458 66 145 2.0 2.0 0.00 0.01 0.01 87 1004.4
20220925221958 66 147 0.0 1.0 0.00 0.01 0.01 86 1004.4
20220925221458 66 114 1.0 1.0 0.00 0.01 0.01 86 1004.4
20220925220958 66 136 0.0 0.0 0.00 0.01 0.01 87 1004.7
20220925220456 66 185 1.0 1.0 0.00 0.01 0.01 87 1004.7
20220925215954 65 113 1.0 1.0 0.00 0.01 0.01 86 1004.7
20220925215455 65 191 3.0 3.0 0.00 0.01 0.01 86 1004.7
20220925214954 65 117 1.0 2.0 0.00 0.01 0.01 86 1004.7
20220925214453 65 166 3.0 4.0 0.07 0.01 0.01 85 1004.7
20220925213953 66 123 2.0 2.0 0.00 0.00 0.00 85 1005.0
20220925213452 66 134 3.0 3.0 0.00 0.00 0.00 84 1005.0
20220925212952 66 181 3.0 4.0 0.00 0.00 0.00 83 1005.0
20220925212451 66 128 1.0 1.0 0.00 0.00 0.00 82 1005.0
20220925211950 66 194 2.0 2.0 0.00 0.00 0.00 81 1005.0
20220925211450 66 202 2.0 3.0 0.00 0.00 0.00 81 1005.0
20220925210951 66 140 1.0 2.0 0.00 0.00 0.00 80 1005.4
20220925210449 66 109 2.0 2.0 0.00 0.00 0.00 80 1005.0
20220925205949 66 164 1.0 1.0 0.00 0.00 0.00 80 1005.4
20220925205447 66 120 0.0 1.0 0.00 0.00 0.00 80 1005.4
20220925204947 65 114 1.0 1.0 0.00 0.00 0.00 79 1005.0
20220925204446 66 193 2.0 3.0 0.00 0.00 0.00 78 1005.4
20220925203944 66 105 1.0 2.0 0.00 0.00 0.00 77 1005.4
20220925203442 66 130 0.0 1.0 0.00 0.00 0.00 75 1005.7
20220925202940 66 133 1.0 1.0 0.00 0.00 0.00 73 1005.4
20220925202438 66 149 1.0 1.0 0.00 0.00 0.00 72 1005.7
20220925201936 67 140 1.0 1.0 0.00 0.00 0.00 71 1005.7
20220925201437 67 213 2.0 2.0 0.00 0.00 0.00 69 1006.1
20220925200935 67 120 1.0 2.0 0.00 0.00 0.00 68 1005.7
20220925200433 67 190 2.0 3.0 0.00 0.00 0.00 66 1005.7
20220925195929 67 227 4.0 4.0 0.00 0.00 0.00 66 1006.1
20220925195429 67 98 2.0 3.0 0.00 0.00 0.00 66 1006.1
20220925194928 67 189 5.0 6.0 0.00 0.00 0.00 64 1006.1
20220925194427 67 148 2.0 3.0 0.00 0.00 0.00 64 1006.1
20220925193924 68 209 9.0 11.0 0.00 0.00 0.00 61 1006.4
20220925193422 68 137 5.0 7.0 0.00 0.00 0.00 60 1006.1
20220925192922 69 228 4.0 6.0 0.00 0.00 0.00 59 1006.1
20220925192422 69 204 4.0 8.0 0.00 0.00 0.00 59 1006.1
20220925191921 69 288 5.0 7.0 0.00 0.00 0.00 61 1006.1
20220925191421 69 210 5.0 7.0 0.00 0.00 0.00 62 1006.1
20220925190919 69 199 6.0 7.0 0.00 0.00 0.00 61 1006.1
20220925190417 69 190 4.0 6.0 0.00 0.00 0.00 60 1006.1
20220925185915 69 169 1.0 2.0 0.00 0.00 0.00 60 1006.1